sim
Sign-in with your pilot id or email,
or register
Callsign
Passwort

Schedule Details

Flight Number: RYR7602 (1)
Departure: Bremen Airport (EDDW) at 16:00
Arrival: Vilnius International Airport (EYVI) at 17:55
Route: Ryanair Passenger Schedule. Enter filed route here before submitting Pirep.

Weather Information
Getting current METAR information for EDDW 111920Z 25003KT 9999 FEW024 14/13 Q1025 NOSIG
Getting current METAR information for EYVI 111920Z 28006KT CAVOK 15/10 Q1019 NOSIG

Schedule Frequency

Route Map